createdAt,value
2019-06-15T00:02:18.868Z,8.20
2019-06-15T00:04:49.282Z,8.10
2019-06-15T00:07:19.730Z,7.23
2019-06-15T00:09:50.163Z,7.77
2019-06-15T00:12:20.641Z,7.20
2019-06-15T00:14:51.014Z,8.23
2019-06-15T00:17:21.582Z,7.30
2019-06-15T00:19:51.986Z,7.97
2019-06-15T00:22:22.425Z,7.70
2019-06-15T00:24:53.029Z,7.50
2019-06-15T00:27:23.741Z,8.50
2019-06-15T00:29:54.170Z,7.80
2019-06-15T00:32:24.508Z,9.00
2019-06-15T00:34:54.945Z,8.90
2019-06-15T00:37:25.314Z,7.90
2019-06-15T00:39:55.661Z,8.13
2019-06-15T00:42:26.356Z,8.10
2019-06-15T00:44:56.844Z,8.07
2019-06-15T00:47:27.280Z,8.40
2019-06-15T00:49:57.905Z,7.50
2019-06-15T00:52:28.234Z,9.20
2019-06-15T00:54:58.546Z,8.90
2019-06-15T00:57:28.997Z,8.03
2019-06-15T01:00:01.908Z,7.33
2019-06-15T01:02:32.311Z,8.40
2019-06-15T01:05:02.780Z,9.13
2019-06-15T01:07:33.401Z,8.53
2019-06-15T01:10:03.852Z,8.60
2019-06-15T01:12:34.323Z,8.70
2019-06-15T01:15:04.975Z,8.57
2019-06-15T01:17:35.765Z,8.73
2019-06-15T01:20:06.632Z,8.63
2019-06-15T01:22:37.363Z,8.13
2019-06-15T01:25:09.234Z,8.67
2019-06-15T01:27:40.170Z,9.90
2019-06-15T01:30:11.720Z,8.33
2019-06-15T01:32:42.146Z,8.10
2019-06-15T01:35:12.833Z,8.93
2019-06-15T01:37:43.301Z,9.03
2019-06-15T01:40:14.189Z,8.77
2019-06-15T01:42:44.925Z,8.63
2019-06-15T01:45:15.595Z,10.03
2019-06-15T01:47:46.244Z,8.80
2019-06-15T01:50:17.012Z,9.97
2019-06-15T01:52:47.769Z,9.10
2019-06-15T01:55:21.161Z,9.30
2019-06-15T01:57:50.430Z,9.57
2019-06-15T02:00:23.148Z,9.00
2019-06-15T02:02:54.512Z,9.80
2019-06-15T02:05:25.092Z,8.80
2019-06-15T02:07:55.479Z,9.37
2019-06-15T02:10:31.381Z,9.90
2019-06-15T02:13:02.063Z,10.33
2019-06-15T02:15:32.791Z,10.00
2019-06-15T02:18:03.387Z,9.40
2019-06-15T02:20:33.860Z,9.53
2019-06-15T02:23:04.162Z,10.07
2019-06-15T02:25:36.601Z,9.90
2019-06-15T02:28:07.295Z,9.60
2019-06-15T02:30:37.964Z,9.70
2019-06-15T02:33:08.332Z,9.60
2019-06-15T02:35:38.619Z,9.03
2019-06-15T02:38:09.028Z,9.20
2019-06-15T02:40:39.474Z,9.10
2019-06-15T02:43:09.800Z,9.50
2019-06-15T02:45:40.215Z,9.67
2019-06-15T02:48:10.594Z,9.63
2019-06-15T02:50:40.995Z,9.40
2019-06-15T02:53:11.445Z,8.77
2019-06-15T02:55:50.602Z,9.20
2019-06-15T02:58:14.399Z,8.47
2019-06-15T03:01:00.919Z,8.63
2019-06-15T03:03:31.454Z,8.70
2019-06-15T03:06:02.223Z,9.13
2019-06-15T03:08:32.632Z,10.33
2019-06-15T03:11:03.067Z,8.13
2019-06-15T03:13:35.186Z,8.37
2019-06-15T03:16:06.361Z,7.63
2019-06-15T03:18:36.724Z,8.07
2019-06-15T03:21:07.248Z,8.90
2019-06-15T03:23:37.607Z,8.67
2019-06-15T03:26:08.348Z,7.97
2019-06-15T03:28:38.767Z,6.90
2019-06-15T03:31:09.388Z,8.57
2019-06-15T03:33:39.719Z,8.30
2019-06-15T03:36:10.092Z,7.93
2019-06-15T03:38:40.469Z,7.80
2019-06-15T03:41:10.849Z,7.70
2019-06-15T03:43:41.188Z,8.10
2019-06-15T03:46:11.589Z,7.73
2019-06-15T03:48:42.035Z,7.50
2019-06-15T03:51:12.353Z,7.80
2019-06-15T03:53:42.879Z,8.17
2019-06-15T03:56:21.691Z,7.53
2019-06-15T03:58:45.741Z,7.50
2019-06-15T04:01:33.736Z,8.27
2019-06-15T04:04:04.060Z,8.00
2019-06-15T04:06:34.451Z,8.20
2019-06-15T04:09:06.171Z,7.70
2019-06-15T04:11:36.590Z,7.33
2019-06-15T04:14:07.207Z,7.93
2019-06-15T04:16:37.717Z,7.67
2019-06-15T04:19:08.026Z,7.73
2019-06-15T04:21:38.660Z,8.33
2019-06-15T04:24:09.186Z,9.00
2019-06-15T04:26:39.506Z,8.27
2019-06-15T04:29:09.851Z,8.40
2019-06-15T04:31:40.236Z,7.53
2019-06-15T04:34:10.799Z,7.57
2019-06-15T04:36:41.085Z,7.03
2019-06-15T04:39:11.565Z,8.03
2019-06-15T04:41:42.101Z,7.80
2019-06-15T04:44:12.438Z,8.03
2019-06-15T04:46:42.857Z,7.60
2019-06-15T04:49:13.634Z,7.23
2019-06-15T04:51:44.002Z,7.30
2019-06-15T04:54:15.433Z,8.00
2019-06-15T04:56:50.889Z,7.03
2019-06-15T04:59:17.807Z,7.73
2019-06-15T05:01:48.213Z,7.20
2019-06-15T05:04:18.563Z,7.30
2019-06-15T05:06:48.945Z,7.30
2019-06-15T05:09:19.483Z,7.90
2019-06-15T05:11:49.982Z,7.77
2019-06-15T05:14:20.298Z,8.23
2019-06-15T05:16:50.860Z,8.67
2019-06-15T05:19:21.273Z,7.90
2019-06-15T05:21:51.694Z,8.20
2019-06-15T05:24:22.171Z,7.77
2019-06-15T05:27:05.586Z,9.10
2019-06-15T05:29:24.588Z,7.43
2019-06-15T05:31:55.096Z,6.90
2019-06-15T05:34:25.503Z,7.27
2019-06-15T05:36:55.921Z,7.47
2019-06-15T05:39:26.499Z,7.40
2019-06-15T05:41:56.895Z,7.10
2019-06-15T05:44:27.242Z,6.90
2019-06-15T05:46:57.863Z,7.67
2019-06-15T05:49:28.212Z,7.47
2019-06-15T05:51:58.606Z,7.60
2019-06-15T05:54:29.242Z,7.33
2019-06-15T05:56:59.663Z,7.90
2019-06-15T05:59:30.508Z,7.40
2019-06-15T06:02:01.130Z,8.60
2019-06-15T06:04:31.521Z,8.03
2019-06-15T06:07:02.875Z,8.63
2019-06-15T06:09:33.350Z,8.40
2019-06-15T06:12:03.702Z,9.43
2019-06-15T06:14:34.121Z,8.17
2019-06-15T06:17:04.906Z,8.43
2019-06-15T06:19:35.261Z,8.10
2019-06-15T06:22:05.559Z,8.47
2019-06-15T06:24:36.058Z,8.27
2019-06-15T06:27:06.540Z,8.60
2019-06-15T06:29:36.890Z,8.30
2019-06-15T06:32:07.316Z,17.00
2019-06-15T06:34:37.729Z,12.13
2019-06-15T06:37:08.348Z,9.33
2019-06-15T06:39:38.742Z,8.40
2019-06-15T06:42:09.045Z,7.70
2019-06-15T06:44:39.561Z,7.27
2019-06-15T06:47:09.971Z,7.93
2019-06-15T06:49:56.855Z,8.93
2019-06-15T06:52:27.274Z,7.60
2019-06-15T06:54:57.681Z,8.93
2019-06-15T06:57:28.544Z,8.47
2019-06-15T06:59:59.408Z,8.73
2019-06-15T07:02:31.356Z,8.67
2019-06-15T07:05:01.750Z,8.30
2019-06-15T07:07:32.169Z,7.77
2019-06-15T07:10:02.622Z,7.57
2019-06-15T07:12:32.995Z,7.73
2019-06-15T07:15:04.845Z,7.73
2019-06-15T07:17:35.358Z,7.90
2019-06-15T07:20:06.813Z,7.80
2019-06-15T07:22:37.311Z,7.13
2019-06-15T07:25:07.962Z,8.20
2019-06-15T07:27:38.407Z,7.47
2019-06-15T07:30:11.030Z,7.20
2019-06-15T07:32:41.435Z,6.30
2019-06-15T07:35:11.933Z,6.70
2019-06-15T07:37:42.333Z,7.47
2019-06-15T07:40:13.561Z,7.40
2019-06-15T07:42:45.261Z,8.80
2019-06-15T07:45:16.020Z,7.00
2019-06-15T07:47:46.721Z,7.00
2019-06-15T07:50:17.740Z,7.40
2019-06-15T07:52:56.405Z,7.83
2019-06-15T07:55:27.520Z,7.47
2019-06-15T07:57:58.015Z,6.47
2019-06-15T08:00:28.437Z,7.23
2019-06-15T08:02:59.792Z,6.43
2019-06-15T08:05:30.195Z,6.60
2019-06-15T08:08:00.995Z,7.27
2019-06-15T08:10:31.409Z,6.60
2019-06-15T08:13:01.982Z,7.57
2019-06-15T08:15:32.402Z,7.30
2019-06-15T08:18:03.142Z,6.97
2019-06-15T08:20:35.155Z,6.80
2019-06-15T08:23:05.779Z,7.10
2019-06-15T08:25:36.317Z,6.77
2019-06-15T08:28:07.070Z,6.20
2019-06-15T08:30:42.319Z,6.80
2019-06-15T08:33:12.788Z,6.00
2019-06-15T08:35:43.123Z,6.13
2019-06-15T08:38:13.628Z,6.90
2019-06-15T08:40:44.096Z,6.53
2019-06-15T08:43:14.404Z,7.00
2019-06-15T08:45:44.810Z,6.50
2019-06-15T08:48:16.305Z,7.00
2019-06-15T08:50:46.628Z,6.53
2019-06-15T08:53:17.077Z,6.43
2019-06-15T08:55:47.431Z,6.30
2019-06-15T08:58:19.969Z,6.43
2019-06-15T09:00:50.424Z,5.87
2019-06-15T09:03:20.793Z,6.23
2019-06-15T09:05:51.128Z,6.00
2019-06-15T09:08:21.664Z,6.43
2019-06-15T09:10:53.055Z,6.10
2019-06-15T09:13:23.422Z,6.60
2019-06-15T09:15:54.537Z,6.13
2019-06-15T09:18:25.110Z,5.90
2019-06-15T09:20:55.479Z,6.07
2019-06-15T09:23:25.910Z,5.77
2019-06-15T09:25:56.541Z,6.60
2019-06-15T09:28:27.052Z,6.93
2019-06-15T09:30:57.519Z,5.43
2019-06-15T09:33:27.910Z,6.27
2019-06-15T09:35:58.236Z,5.73
2019-06-15T09:38:28.783Z,6.77
2019-06-15T09:40:59.129Z,6.10
2019-06-15T09:43:29.473Z,5.90
2019-06-15T09:45:59.942Z,6.27
2019-06-15T09:48:30.411Z,5.20
2019-06-15T09:51:00.747Z,6.20
2019-06-15T09:53:31.268Z,6.27
2019-06-15T09:56:01.687Z,6.37
2019-06-15T09:58:32.129Z,6.53
2019-06-15T10:01:02.552Z,6.37
2019-06-15T10:03:32.879Z,6.30
2019-06-15T10:06:03.204Z,6.00
2019-06-15T10:08:33.720Z,6.07
2019-06-15T10:11:04.071Z,6.37
2019-06-15T10:13:34.691Z,5.70
2019-06-15T10:16:05.177Z,5.53
2019-06-15T10:18:38.689Z,6.20
2019-06-15T10:21:07.575Z,6.50
2019-06-15T10:23:37.957Z,5.60
2019-06-15T10:26:08.475Z,5.80
2019-06-15T10:28:38.812Z,5.70
2019-06-15T10:31:09.205Z,6.13
2019-06-15T10:33:39.575Z,6.10
2019-06-15T10:36:09.939Z,6.20
2019-06-15T10:38:40.457Z,6.40
2019-06-15T10:41:11.206Z,6.57
2019-06-15T10:43:41.553Z,6.97
2019-06-15T10:46:12.081Z,5.63
2019-06-15T10:48:42.482Z,6.20
2019-06-15T10:51:12.830Z,6.43
2019-06-15T10:53:43.273Z,6.70
2019-06-15T10:56:13.681Z,5.80
2019-06-15T10:58:44.131Z,6.17
2019-06-15T11:01:14.533Z,6.10
2019-06-15T11:03:45.278Z,6.00
2019-06-15T11:06:15.617Z,6.63
2019-06-15T11:08:46.280Z,5.80
2019-06-15T11:11:23.183Z,6.10
2019-06-15T11:13:53.637Z,6.13
2019-06-15T11:16:24.043Z,6.00
2019-06-15T11:18:54.478Z,6.00
2019-06-15T11:21:25.014Z,5.80
2019-06-15T11:23:55.354Z,5.80
2019-06-15T11:26:26.078Z,5.73
2019-06-15T11:28:56.586Z,6.83
2019-06-15T11:31:26.911Z,6.40
2019-06-15T11:33:57.241Z,6.50
2019-06-15T11:36:27.621Z,6.50
2019-06-15T11:38:58.057Z,6.53
2019-06-15T11:41:28.431Z,5.73
2019-06-15T11:43:58.858Z,6.87
2019-06-15T11:46:29.275Z,6.43
2019-06-15T11:48:59.637Z,6.30
2019-06-15T11:51:30.158Z,6.13
2019-06-15T11:54:00.611Z,6.90
2019-06-15T11:56:30.975Z,6.10
2019-06-15T11:59:01.354Z,6.60
2019-06-15T12:01:31.837Z,6.10
2019-06-15T12:04:02.124Z,6.10
2019-06-15T12:06:32.565Z,5.97
2019-06-15T12:09:02.991Z,5.70
2019-06-15T12:11:33.280Z,5.90
2019-06-15T12:14:03.875Z,5.80
2019-06-15T12:16:34.379Z,5.63
2019-06-15T12:19:04.716Z,5.50
2019-06-15T12:21:35.204Z,6.53
2019-06-15T12:24:05.788Z,6.30
2019-06-15T12:26:38.368Z,6.43
2019-06-15T12:29:08.888Z,6.30
2019-06-15T12:31:39.387Z,5.93
2019-06-15T12:34:09.804Z,6.40
2019-06-15T12:36:40.307Z,6.27
2019-06-15T12:39:10.613Z,7.23
2019-06-15T12:41:40.962Z,6.80
2019-06-15T12:44:11.506Z,7.27
2019-06-15T12:46:42.025Z,6.83
2019-06-15T12:49:12.410Z,6.60
2019-06-15T12:51:42.859Z,6.20
2019-06-15T12:54:13.689Z,5.37
2019-06-15T12:56:44.079Z,6.77
2019-06-15T12:59:14.593Z,6.10
2019-06-15T13:01:45.082Z,6.63
2019-06-15T13:04:15.452Z,6.70
2019-06-15T13:06:46.291Z,7.17
2019-06-15T13:09:16.699Z,6.60
2019-06-15T13:11:47.259Z,7.83
2019-06-15T13:14:17.700Z,7.87
2019-06-15T13:16:49.025Z,7.40
2019-06-15T13:19:19.355Z,6.63
2019-06-15T13:21:49.850Z,6.40
2019-06-15T13:24:20.225Z,7.10
2019-06-15T13:26:50.640Z,6.97
2019-06-15T13:29:21.056Z,7.00
2019-06-15T13:31:51.447Z,6.40
2019-06-15T13:34:21.795Z,6.07
2019-06-15T13:36:52.257Z,6.90
2019-06-15T13:39:22.694Z,6.20
2019-06-15T13:41:52.992Z,6.33
2019-06-15T13:44:23.498Z,5.93
2019-06-15T13:46:53.821Z,6.27
2019-06-15T13:49:24.218Z,7.03
2019-06-15T13:51:54.747Z,7.13
2019-06-15T13:54:25.125Z,7.00
2019-06-15T13:56:55.599Z,7.40
2019-06-15T13:59:26.159Z,6.80
2019-06-15T14:01:56.646Z,6.33
2019-06-15T14:04:27.059Z,6.77
2019-06-15T14:06:57.500Z,7.30
2019-06-15T14:09:27.868Z,6.80
2019-06-15T14:11:58.626Z,6.00
2019-06-15T14:14:29.093Z,6.57
2019-06-15T14:16:59.408Z,7.17
2019-06-15T14:19:29.873Z,6.17
2019-06-15T14:22:00.323Z,6.83
2019-06-15T14:24:30.657Z,6.70
2019-06-15T14:27:01.508Z,6.47
2019-06-15T14:29:32.005Z,8.00
2019-06-15T14:32:02.841Z,6.83
2019-06-15T14:34:33.629Z,6.40
2019-06-15T14:37:04.085Z,6.67
2019-06-15T14:39:34.488Z,6.90
2019-06-15T14:42:04.799Z,5.97
2019-06-15T14:44:35.388Z,6.80
2019-06-15T14:47:05.831Z,6.63
2019-06-15T14:49:36.154Z,6.50
2019-06-15T14:52:06.785Z,6.53
2019-06-15T14:54:37.371Z,6.10
2019-06-15T14:57:08.152Z,7.03
2019-06-15T14:59:52.007Z,6.73
2019-06-15T15:02:14.028Z,6.40
2019-06-15T15:04:42.996Z,6.60
2019-06-15T15:07:13.367Z,6.80
2019-06-15T15:09:45.883Z,6.37
2019-06-15T15:12:16.201Z,6.17
2019-06-15T15:14:46.952Z,6.43
2019-06-15T15:17:17.463Z,6.20
2019-06-15T15:19:47.932Z,6.13
2019-06-15T15:22:18.281Z,6.40
2019-06-15T15:24:48.812Z,5.80
2019-06-15T15:27:19.230Z,6.10
2019-06-15T15:29:49.670Z,7.47
2019-06-15T15:32:27.022Z,7.13
2019-06-15T15:34:52.401Z,6.50
2019-06-15T15:37:22.722Z,7.00
2019-06-15T15:39:53.006Z,6.73
2019-06-15T15:42:26.381Z,6.57
2019-06-15T15:44:56.484Z,6.20
2019-06-15T15:47:27.667Z,7.33
2019-06-15T15:49:58.294Z,6.57
2019-06-15T15:52:28.785Z,6.60
2019-06-15T15:54:59.261Z,6.37
2019-06-15T15:57:29.590Z,7.20
2019-06-15T15:59:59.958Z,7.27
2019-06-15T16:02:44.618Z,6.97
2019-06-15T16:05:02.609Z,6.53
2019-06-15T16:07:33.071Z,7.40
2019-06-15T16:10:06.103Z,6.80
2019-06-15T16:12:36.340Z,7.60
2019-06-15T16:15:07.507Z,7.40
2019-06-15T16:17:38.254Z,7.27
2019-06-15T16:20:17.235Z,7.87
2019-06-15T16:22:48.556Z,7.20
2019-06-15T16:25:18.902Z,7.40
2019-06-15T16:27:49.377Z,7.37
2019-06-15T16:30:55.694Z,8.40
2019-06-15T16:33:04.177Z,8.30
2019-06-15T16:35:33.007Z,7.93
2019-06-15T16:38:03.511Z,8.10
2019-06-15T16:40:41.247Z,8.00
2019-06-15T16:43:11.666Z,7.17
2019-06-15T16:45:41.982Z,8.27
2019-06-15T16:48:12.927Z,8.10
2019-06-15T16:50:43.338Z,7.80
2019-06-15T16:53:13.845Z,8.47
2019-06-15T16:55:46.600Z,9.87
2019-06-15T16:58:16.462Z,11.60
2019-06-15T17:00:47.708Z,12.60
2019-06-15T17:03:24.841Z,12.20
2019-06-15T17:05:50.387Z,11.47
2019-06-15T17:08:20.762Z,10.10
2019-06-15T17:10:51.320Z,10.10
2019-06-15T17:13:21.833Z,10.13
2019-06-15T17:15:52.290Z,11.33
2019-06-15T17:18:22.790Z,10.20
2019-06-15T17:20:56.407Z,11.30
2019-06-15T17:23:27.685Z,11.20
2019-06-15T17:25:58.370Z,12.07
2019-06-15T17:28:28.693Z,11.63
2019-06-15T17:30:59.098Z,12.60
2019-06-15T17:33:37.605Z,13.60
2019-06-15T17:36:03.306Z,11.80
2019-06-15T17:38:36.667Z,11.60
2019-06-15T17:41:06.282Z,10.90
2019-06-15T17:43:36.706Z,11.37
2019-06-15T17:46:07.524Z,10.87
2019-06-15T17:48:37.796Z,10.70
2019-06-15T17:51:08.152Z,10.10
2019-06-15T17:53:38.612Z,11.13
2019-06-15T17:56:09.559Z,11.47
2019-06-15T17:58:39.902Z,10.40
2019-06-15T18:01:10.387Z,9.93
2019-06-15T18:03:50.349Z,10.10
2019-06-15T18:06:12.881Z,9.87
2019-06-15T18:08:43.409Z,9.80
2019-06-15T18:11:16.400Z,10.10
2019-06-15T18:13:47.264Z,9.60
2019-06-15T18:16:17.900Z,9.93
2019-06-15T18:18:48.358Z,10.97
2019-06-15T18:21:19.086Z,9.40
2019-06-15T18:23:49.713Z,9.00
2019-06-15T18:26:20.165Z,9.50
2019-06-15T18:28:50.495Z,8.57
2019-06-15T18:31:21.032Z,8.90
2019-06-15T18:34:08.322Z,8.37
2019-06-15T18:36:26.085Z,8.77
2019-06-15T18:38:57.543Z,8.67
2019-06-15T18:41:28.465Z,8.37
2019-06-15T18:43:58.816Z,8.70
2019-06-15T18:46:29.250Z,8.37
2019-06-15T18:48:59.602Z,8.57
2019-06-15T18:51:30.118Z,8.60
2019-06-15T18:54:00.670Z,7.80
2019-06-15T18:56:31.470Z,8.70
2019-06-15T18:59:02.058Z,8.00
2019-06-15T19:01:32.679Z,9.03
2019-06-15T19:04:03.346Z,8.80
2019-06-15T19:06:37.017Z,8.93
2019-06-15T19:09:09.713Z,7.73
2019-06-15T19:11:40.121Z,9.10
2019-06-15T19:14:10.494Z,8.50
2019-06-15T19:16:41.066Z,8.60
2019-06-15T19:19:11.766Z,8.40
2019-06-15T19:21:42.337Z,8.13
2019-06-15T19:24:13.025Z,8.50
2019-06-15T19:26:45.913Z,9.40
2019-06-15T19:29:17.086Z,9.07
2019-06-15T19:31:47.808Z,9.60
2019-06-15T19:34:18.219Z,10.07
2019-06-15T19:36:48.798Z,9.60
2019-06-15T19:39:19.179Z,10.43
2019-06-15T19:41:49.878Z,9.97
2019-06-15T19:44:21.307Z,9.83
2019-06-15T19:46:51.746Z,9.60
2019-06-15T19:49:22.254Z,10.00
2019-06-15T19:51:53.006Z,9.50
2019-06-15T19:54:26.234Z,9.80
2019-06-15T19:56:56.477Z,10.47
2019-06-15T19:59:27.007Z,10.03
2019-06-15T20:01:57.631Z,9.60
2019-06-15T20:04:27.959Z,9.47
2019-06-15T20:06:58.491Z,9.30
2019-06-15T20:09:29.018Z,10.17
2019-06-15T20:11:59.360Z,9.80
2019-06-15T20:14:29.697Z,10.93
2019-06-15T20:17:00.499Z,9.60
2019-06-15T20:19:30.864Z,9.77
2019-06-15T20:22:01.440Z,9.67
2019-06-15T20:24:32.059Z,9.37
2019-06-15T20:27:02.485Z,9.43
2019-06-15T20:29:33.376Z,9.50
2019-06-15T20:32:06.381Z,10.03
2019-06-15T20:34:37.051Z,9.20
2019-06-15T20:37:07.814Z,10.83
2019-06-15T20:39:38.273Z,9.00
2019-06-15T20:42:08.723Z,10.40
2019-06-15T20:44:39.245Z,10.07
2019-06-15T20:47:09.610Z,9.77
2019-06-15T20:49:39.926Z,10.90
2019-06-15T20:52:10.548Z,10.23
2019-06-15T20:54:40.967Z,9.57
2019-06-15T20:57:11.470Z,9.50
2019-06-15T20:59:41.986Z,9.53
2019-06-15T21:02:12.359Z,9.53
2019-06-15T21:04:42.871Z,9.90
2019-06-15T21:07:16.041Z,9.17
2019-06-15T21:09:46.764Z,9.20
2019-06-15T21:12:17.283Z,9.33
2019-06-15T21:14:47.882Z,9.17
2019-06-15T21:17:18.288Z,9.40
2019-06-15T21:19:48.720Z,8.70
2019-06-15T21:22:19.198Z,9.27
2019-06-15T21:24:50.845Z,8.90
2019-06-15T21:27:21.173Z,9.30
2019-06-15T21:29:51.698Z,9.30
2019-06-15T21:32:22.152Z,9.73
2019-06-15T21:34:52.556Z,8.90
2019-06-15T21:37:23.044Z,8.27
2019-06-15T21:39:53.381Z,8.53
2019-06-15T21:42:23.696Z,8.60
2019-06-15T21:44:56.232Z,8.90
2019-06-15T21:47:26.260Z,8.33
2019-06-15T21:49:56.604Z,8.50
2019-06-15T21:52:27.160Z,9.57
2019-06-15T21:54:57.590Z,8.40
2019-06-15T21:57:27.984Z,8.90
2019-06-15T21:59:58.732Z,8.67
2019-06-15T22:02:29.136Z,8.60
2019-06-15T22:04:59.613Z,8.60
2019-06-15T22:07:30.508Z,8.93
2019-06-15T22:10:00.896Z,8.23
2019-06-15T22:12:31.298Z,9.00
2019-06-15T22:15:01.693Z,9.20
2019-06-15T22:17:32.012Z,9.60
2019-06-15T22:20:02.348Z,9.83
2019-06-15T22:22:32.755Z,9.10
2019-06-15T22:25:03.076Z,9.70
2019-06-15T22:27:41.006Z,9.30
2019-06-15T22:30:12.091Z,9.50
2019-06-15T22:32:42.416Z,8.47
2019-06-15T22:35:13.107Z,9.50
2019-06-15T22:37:43.457Z,8.50
2019-06-15T22:40:16.388Z,9.07
2019-06-15T22:42:47.011Z,8.83
2019-06-15T22:45:17.778Z,8.80
2019-06-15T22:47:48.275Z,8.60
2019-06-15T22:50:19.102Z,9.07
2019-06-15T22:52:49.436Z,8.97
2019-06-15T22:55:19.784Z,9.10
2019-06-15T22:57:50.164Z,9.40
2019-06-15T23:00:20.497Z,9.13
2019-06-15T23:02:50.817Z,9.47
2019-06-15T23:05:21.255Z,9.40
2019-06-15T23:07:51.715Z,9.90
2019-06-15T23:10:22.124Z,8.83
2019-06-15T23:12:52.559Z,9.17
2019-06-15T23:15:22.971Z,8.40
2019-06-15T23:17:53.286Z,9.50
2019-06-15T23:20:26.832Z,9.23
2019-06-15T23:22:56.202Z,9.33
2019-06-15T23:25:27.452Z,9.20
2019-06-15T23:27:58.028Z,8.80
2019-06-15T23:30:28.311Z,8.73
2019-06-15T23:32:58.690Z,8.83
2019-06-15T23:35:34.065Z,9.40
2019-06-15T23:38:06.485Z,8.93
2019-06-15T23:40:36.428Z,9.33
2019-06-15T23:43:06.780Z,8.93
2019-06-15T23:45:37.120Z,9.00
2019-06-15T23:48:07.546Z,8.67
2019-06-15T23:50:37.939Z,8.73
2019-06-15T23:53:08.278Z,8.70
2019-06-15T23:55:38.567Z,8.77
2019-06-15T23:58:09.012Z,8.93
